sensor_id;sensor_type;location;lat;lon;timestamp;pressure;altitude;pressure_sealevel;temperature;humidity
22651;BME280;11492;42.646;23.400;2022-11-12T00:00:30;96382.38;;;10.56;72.39
22651;BME280;11492;42.646;23.400;2022-11-12T00:02:56;96392.78;;;10.64;71.69
22651;BME280;11492;42.646;23.400;2022-11-12T00:05:21;96387.19;;;10.69;72.63
22651;BME280;11492;42.646;23.400;2022-11-12T00:07:47;96384.19;;;10.73;72.15
22651;BME280;11492;42.646;23.400;2022-11-12T00:10:12;96353.25;;;10.64;71.63
22651;BME280;11492;42.646;23.400;2022-11-12T00:12:38;96367.88;;;10.72;71.86
22651;BME280;11492;42.646;23.400;2022-11-12T00:15:04;96348.88;;;10.64;72.64
22651;BME280;11492;42.646;23.400;2022-11-12T00:17:29;96355.38;;;10.68;72.12
22651;BME280;11492;42.646;23.400;2022-11-12T00:19:55;96365.13;;;10.74;72.33
22651;BME280;11492;42.646;23.400;2022-11-12T00:22:21;96372.44;;;10.78;71.89
22651;BME280;11492;42.646;23.400;2022-11-12T00:24:46;96381.97;;;10.78;71.55
22651;BME280;11492;42.646;23.400;2022-11-12T00:27:12;96372.22;;;10.72;71.92
22651;BME280;11492;42.646;23.400;2022-11-12T00:29:37;96362.75;;;10.63;72.63
22651;BME280;11492;42.646;23.400;2022-11-12T00:32:05;96377.09;;;10.75;71.83
22651;BME280;11492;42.646;23.400;2022-11-12T00:34:30;96373.16;;;10.71;71.86
22651;BME280;11492;42.646;23.400;2022-11-12T00:36:56;96367.28;;;10.61;72.56
22651;BME280;11492;42.646;23.400;2022-11-12T00:39:21;96380.19;;;10.61;72.60
22651;BME280;11492;42.646;23.400;2022-11-12T00:41:47;96364.97;;;10.58;72.73
22651;BME280;11492;42.646;23.400;2022-11-12T00:44:12;96377.00;;;10.67;72.44
22651;BME280;11492;42.646;23.400;2022-11-12T00:46:37;96352.53;;;10.45;72.28
22651;BME280;11492;42.646;23.400;2022-11-12T00:49:03;96365.41;;;10.54;73.14
22651;BME280;11492;42.646;23.400;2022-11-12T00:51:28;96369.09;;;10.51;72.47
22651;BME280;11492;42.646;23.400;2022-11-12T00:53:54;96362.59;;;10.47;72.97
22651;BME280;11492;42.646;23.400;2022-11-12T00:56:19;96353.66;;;10.42;72.57
22651;BME280;11492;42.646;23.400;2022-11-12T00:58:44;96365.19;;;10.47;72.53
22651;BME280;11492;42.646;23.400;2022-11-12T01:01:12;96365.94;;;10.57;73.31
22651;BME280;11492;42.646;23.400;2022-11-12T01:03:38;96340.31;;;10.46;73.73
22651;BME280;11492;42.646;23.400;2022-11-12T01:06:06;96346.78;;;10.50;73.32
22651;BME280;11492;42.646;23.400;2022-11-12T01:08:32;96335.16;;;10.46;72.78
22651;BME280;11492;42.646;23.400;2022-11-12T01:11:06;96345.69;;;10.53;73.03
22651;BME280;11492;42.646;23.400;2022-11-12T01:13:32;96356.03;;;10.53;72.75
22651;BME280;11492;42.646;23.400;2022-11-12T01:15:58;96344.38;;;10.49;72.98
22651;BME280;11492;42.646;23.400;2022-11-12T01:18:23;96355.81;;;10.46;72.96
22651;BME280;11492;42.646;23.400;2022-11-12T01:20:49;96349.53;;;10.49;72.74
22651;BME280;11492;42.646;23.400;2022-11-12T01:23:14;96361.34;;;10.51;73.43
22651;BME280;11492;42.646;23.400;2022-11-12T01:25:39;96347.97;;;10.39;73.07
22651;BME280;11492;42.646;23.400;2022-11-12T01:28:05;96353.66;;;10.42;73.47
22651;BME280;11492;42.646;23.400;2022-11-12T01:30:30;96357.28;;;10.49;73.41
22651;BME280;11492;42.646;23.400;2022-11-12T01:32:56;96344.13;;;10.43;73.37
22651;BME280;11492;42.646;23.400;2022-11-12T01:35:21;96338.00;;;10.44;73.77
22651;BME280;11492;42.646;23.400;2022-11-12T01:37:47;96351.69;;;10.53;72.79
22651;BME280;11492;42.646;23.400;2022-11-12T01:40:12;96344.13;;;10.43;72.92
22651;BME280;11492;42.646;23.400;2022-11-12T01:42:39;96325.50;;;10.22;73.96
22651;BME280;11492;42.646;23.400;2022-11-12T01:45:12;96331.44;;;10.32;73.73
22651;BME280;11492;42.646;23.400;2022-11-12T01:47:41;96314.75;;;10.26;73.73
22651;BME280;11492;42.646;23.400;2022-11-12T01:50:21;96322.13;;;10.21;73.68
22651;BME280;11492;42.646;23.400;2022-11-12T01:52:58;96334.59;;;10.26;73.31
22651;BME280;11492;42.646;23.400;2022-11-12T01:55:28;96333.09;;;10.23;73.48
22651;BME280;11492;42.646;23.400;2022-11-12T01:57:59;96316.84;;;10.14;73.97
22651;BME280;11492;42.646;23.400;2022-11-12T02:00:29;96315.78;;;10.16;73.47
22651;BME280;11492;42.646;23.400;2022-11-12T02:02:58;96332.69;;;10.28;72.88
22651;BME280;11492;42.646;23.400;2022-11-12T02:05:26;96335.25;;;10.28;73.27
22651;BME280;11492;42.646;23.400;2022-11-12T02:07:53;96329.06;;;10.21;73.98
22651;BME280;11492;42.646;23.400;2022-11-12T02:10:21;96330.13;;;10.19;73.32
22651;BME280;11492;42.646;23.400;2022-11-12T02:12:48;96317.31;;;10.09;72.52
22651;BME280;11492;42.646;23.400;2022-11-12T02:15:33;96331.47;;;10.22;72.87
22651;BME280;11492;42.646;23.400;2022-11-12T02:17:59;96328.69;;;10.16;72.74
22651;BME280;11492;42.646;23.400;2022-11-12T02:20:24;96338.03;;;10.17;72.72
22651;BME280;11492;42.646;23.400;2022-11-12T02:22:49;96326.94;;;10.07;72.50
22651;BME280;11492;42.646;23.400;2022-11-12T02:25:20;96340.81;;;10.06;72.10
22651;BME280;11492;42.646;23.400;2022-11-12T02:27:47;96334.88;;;9.96;72.25
22651;BME280;11492;42.646;23.400;2022-11-12T02:30:17;96327.97;;;9.88;72.28
22651;BME280;11492;42.646;23.400;2022-11-12T02:32:42;96332.63;;;9.84;72.34
22651;BME280;11492;42.646;23.400;2022-11-12T02:35:08;96331.38;;;9.88;72.72
22651;BME280;11492;42.646;23.400;2022-11-12T02:37:33;96328.66;;;9.80;72.79
22651;BME280;11492;42.646;23.400;2022-11-12T02:40:00;96349.97;;;9.92;72.73
22651;BME280;11492;42.646;23.400;2022-11-12T02:42:25;96339.41;;;9.85;72.84
22651;BME280;11492;42.646;23.400;2022-11-12T02:44:51;96344.66;;;9.93;72.22
22651;BME280;11492;42.646;23.400;2022-11-12T02:47:16;96350.13;;;9.90;72.74
22651;BME280;11492;42.646;23.400;2022-11-12T02:49:42;96342.38;;;9.90;72.90
22651;BME280;11492;42.646;23.400;2022-11-12T02:52:09;96337.50;;;9.87;72.93
22651;BME280;11492;42.646;23.400;2022-11-12T02:54:35;96315.28;;;9.68;72.58
22651;BME280;11492;42.646;23.400;2022-11-12T02:57:00;96338.44;;;9.86;72.19
22651;BME280;11492;42.646;23.400;2022-11-12T02:59:25;96309.66;;;9.81;72.35
22651;BME280;11492;42.646;23.400;2022-11-12T03:01:51;96323.25;;;9.83;72.03
22651;BME280;11492;42.646;23.400;2022-11-12T03:04:16;96322.66;;;9.63;73.15
22651;BME280;11492;42.646;23.400;2022-11-12T03:06:42;96331.50;;;9.42;74.27
22651;BME280;11492;42.646;23.400;2022-11-12T03:09:07;96317.94;;;9.40;74.21
22651;BME280;11492;42.646;23.400;2022-11-12T03:11:33;96320.94;;;9.45;73.48
22651;BME280;11492;42.646;23.400;2022-11-12T03:13:59;96338.13;;;9.63;73.17
22651;BME280;11492;42.646;23.400;2022-11-12T03:16:26;96324.13;;;9.56;72.84
22651;BME280;11492;42.646;23.400;2022-11-12T03:18:51;96338.13;;;9.53;72.80
22651;BME280;11492;42.646;23.400;2022-11-12T03:21:16;96337.75;;;9.48;72.82
22651;BME280;11492;42.646;23.400;2022-11-12T03:23:42;96334.25;;;9.31;72.91
22651;BME280;11492;42.646;23.400;2022-11-12T03:26:07;96337.78;;;9.30;73.09
22651;BME280;11492;42.646;23.400;2022-11-12T03:28:33;96348.38;;;9.27;72.79
22651;BME280;11492;42.646;23.400;2022-11-12T03:30:59;96346.47;;;9.20;72.38
22651;BME280;11492;42.646;23.400;2022-11-12T03:33:25;96327.53;;;9.02;72.42
22651;BME280;11492;42.646;23.400;2022-11-12T03:35:50;96319.41;;;8.88;73.93
22651;BME280;11492;42.646;23.400;2022-11-12T03:38:16;96335.50;;;8.90;73.38
22651;BME280;11492;42.646;23.400;2022-11-12T03:40:41;96347.31;;;8.92;73.69
22651;BME280;11492;42.646;23.400;2022-11-12T03:43:07;96330.25;;;8.82;74.04
22651;BME280;11492;42.646;23.400;2022-11-12T03:45:33;96343.13;;;8.82;73.65
22651;BME280;11492;42.646;23.400;2022-11-12T03:47:58;96325.63;;;8.57;73.93
22651;BME280;11492;42.646;23.400;2022-11-12T03:50:26;96339.97;;;8.69;73.78
22651;BME280;11492;42.646;23.400;2022-11-12T03:52:54;96349.47;;;8.59;74.43
22651;BME280;11492;42.646;23.400;2022-11-12T03:55:21;96339.69;;;8.53;75.38
22651;BME280;11492;42.646;23.400;2022-11-12T03:57:48;96335.50;;;8.52;74.63
22651;BME280;11492;42.646;23.400;2022-11-12T04:00:15;96339.97;;;8.50;74.70
22651;BME280;11492;42.646;23.400;2022-11-12T04:02:41;96352.56;;;8.53;75.36
22651;BME280;11492;42.646;23.400;2022-11-12T04:05:07;96337.25;;;8.43;75.39
22651;BME280;11492;42.646;23.400;2022-11-12T04:08:13;96346.34;;;8.46;75.06
22651;BME280;11492;42.646;23.400;2022-11-12T04:10:57;96318.69;;;8.30;75.54
22651;BME280;11492;42.646;23.400;2022-11-12T04:13:22;96329.94;;;8.29;75.47
22651;BME280;11492;42.646;23.400;2022-11-12T04:18:42;96339.66;;;8.25;74.99
22651;BME280;11492;42.646;23.400;2022-11-12T04:21:54;96339.38;;;8.19;75.68
22651;BME280;11492;42.646;23.400;2022-11-12T04:24:28;96322.72;;;8.14;75.36
22651;BME280;11492;42.646;23.400;2022-11-12T04:29:39;96328.50;;;8.06;76.17
22651;BME280;11492;42.646;23.400;2022-11-12T04:32:24;96319.44;;;8.02;76.00
22651;BME280;11492;42.646;23.400;2022-11-12T04:34:50;96307.78;;;7.98;76.44
22651;BME280;11492;42.646;23.400;2022-11-12T04:37:16;96312.41;;;8.04;76.66
22651;BME280;11492;42.646;23.400;2022-11-12T04:39:41;96320.19;;;7.94;76.85
22651;BME280;11492;42.646;23.400;2022-11-12T04:42:08;96327.38;;;7.99;77.40
22651;BME280;11492;42.646;23.400;2022-11-12T04:44:52;96333.19;;;8.01;76.89
22651;BME280;11492;42.646;23.400;2022-11-12T04:47:25;96330.91;;;7.98;77.09
22651;BME280;11492;42.646;23.400;2022-11-12T04:49:51;96332.66;;;7.98;76.95
22651;BME280;11492;42.646;23.400;2022-11-12T04:52:16;96327.91;;;7.94;76.55
22651;BME280;11492;42.646;23.400;2022-11-12T04:54:42;96317.88;;;7.91;76.53
22651;BME280;11492;42.646;23.400;2022-11-12T04:57:07;96344.28;;;8.02;76.35
22651;BME280;11492;42.646;23.400;2022-11-12T04:59:33;96334.84;;;8.02;76.40
22651;BME280;11492;42.646;23.400;2022-11-12T05:01:58;96345.31;;;8.10;76.75
22651;BME280;11492;42.646;23.400;2022-11-12T05:04:23;96354.53;;;8.13;77.05
22651;BME280;11492;42.646;23.400;2022-11-12T05:06:52;96340.97;;;8.11;76.44
22651;BME280;11492;42.646;23.400;2022-11-12T05:09:19;96357.41;;;8.19;77.05
22651;BME280;11492;42.646;23.400;2022-11-12T05:11:46;96345.06;;;8.13;77.25
22651;BME280;11492;42.646;23.400;2022-11-12T05:14:11;96351.84;;;8.14;77.19
22651;BME280;11492;42.646;23.400;2022-11-12T05:16:37;96357.69;;;8.25;77.23
22651;BME280;11492;42.646;23.400;2022-11-12T05:19:03;96353.72;;;8.21;76.67
22651;BME280;11492;42.646;23.400;2022-11-12T05:21:29;96349.97;;;8.25;75.95
22651;BME280;11492;42.646;23.400;2022-11-12T05:24:13;96358.38;;;8.37;76.25
22651;BME280;11492;42.646;23.400;2022-11-12T05:26:39;96350.94;;;8.34;76.03
22651;BME280;11492;42.646;23.400;2022-11-12T05:29:05;96364.34;;;8.46;76.03
22651;BME280;11492;42.646;23.400;2022-11-12T05:31:31;96362.59;;;8.47;76.06
22651;BME280;11492;42.646;23.400;2022-11-12T05:33:56;96360.81;;;8.47;75.78
22651;BME280;11492;42.646;23.400;2022-11-12T05:36:22;96357.44;;;8.47;75.97
22651;BME280;11492;42.646;23.400;2022-11-12T05:38:47;96370.34;;;8.56;75.08
22651;BME280;11492;42.646;23.400;2022-11-12T05:41:12;96372.66;;;8.59;75.22
22651;BME280;11492;42.646;23.400;2022-11-12T05:43:38;96350.41;;;8.49;73.77
22651;BME280;11492;42.646;23.400;2022-11-12T05:46:04;96377.38;;;8.54;74.42
22651;BME280;11492;42.646;23.400;2022-11-12T05:48:33;96374.44;;;8.87;74.42
22651;BME280;11492;42.646;23.400;2022-11-12T05:50:58;96365.47;;;8.81;73.30
22651;BME280;11492;42.646;23.400;2022-11-12T05:53:24;96379.56;;;8.77;73.56
22651;BME280;11492;42.646;23.400;2022-11-12T05:55:49;96371.44;;;8.82;72.84
22651;BME280;11492;42.646;23.400;2022-11-12T05:58:14;96373.59;;;8.77;73.44
22651;BME280;11492;42.646;23.400;2022-11-12T06:00:40;96376.72;;;8.90;73.10
22651;BME280;11492;42.646;23.400;2022-11-12T06:03:10;96352.34;;;8.75;73.23
22651;BME280;11492;42.646;23.400;2022-11-12T06:05:36;96375.25;;;8.96;71.50
22651;BME280;11492;42.646;23.400;2022-11-12T06:08:03;96383.38;;;9.01;71.26
22651;BME280;11492;42.646;23.400;2022-11-12T06:10:31;96379.44;;;9.16;71.06
22651;BME280;11492;42.646;23.400;2022-11-12T06:12:57;96389.06;;;9.23;70.89
22651;BME280;11492;42.646;23.400;2022-11-12T06:15:23;96382.13;;;9.24;70.67
22651;BME280;11492;42.646;23.400;2022-11-12T06:17:52;96379.72;;;9.22;70.89
22651;BME280;11492;42.646;23.400;2022-11-12T06:20:18;96394.47;;;9.30;71.50
22651;BME280;11492;42.646;23.400;2022-11-12T06:22:43;96378.75;;;9.23;70.81
22651;BME280;11492;42.646;23.400;2022-11-12T06:25:09;96385.81;;;9.21;70.73
22651;BME280;11492;42.646;23.400;2022-11-12T06:27:34;96394.75;;;9.27;69.66
22651;BME280;11492;42.646;23.400;2022-11-12T06:30:00;96391.78;;;9.22;69.08
22651;BME280;11492;42.646;23.400;2022-11-12T06:32:25;96387.44;;;9.22;68.02
22651;BME280;11492;42.646;23.400;2022-11-12T06:34:51;96384.44;;;9.27;67.49
22651;BME280;11492;42.646;23.400;2022-11-12T06:37:18;96393.50;;;9.31;67.32
22651;BME280;11492;42.646;23.400;2022-11-12T06:39:43;96393.00;;;9.37;67.03
22651;BME280;11492;42.646;23.400;2022-11-12T06:42:09;96400.56;;;9.38;67.77
22651;BME280;11492;42.646;23.400;2022-11-12T06:44:34;96388.09;;;9.34;68.06
22651;BME280;11492;42.646;23.400;2022-11-12T06:47:00;96389.06;;;9.33;67.31
22651;BME280;11492;42.646;23.400;2022-11-12T06:49:26;96408.31;;;9.47;67.95
22651;BME280;11492;42.646;23.400;2022-11-12T06:51:51;96402.84;;;9.50;67.48
22651;BME280;11492;42.646;23.400;2022-11-12T06:54:17;96389.13;;;9.59;67.74
22651;BME280;11492;42.646;23.400;2022-11-12T06:56:42;96400.63;;;9.74;67.41
22651;BME280;11492;42.646;23.400;2022-11-12T06:59:07;96403.63;;;9.79;66.88
22651;BME280;11492;42.646;23.400;2022-11-12T07:01:33;96400.09;;;9.80;65.52
22651;BME280;11492;42.646;23.400;2022-11-12T07:03:58;96399.28;;;9.89;65.83
22651;BME280;11492;42.646;23.400;2022-11-12T07:06:24;96399.03;;;10.09;64.65
22651;BME280;11492;42.646;23.400;2022-11-12T07:08:50;96392.50;;;10.14;64.31
22651;BME280;11492;42.646;23.400;2022-11-12T07:11:17;96398.81;;;10.29;63.52
22651;BME280;11492;42.646;23.400;2022-11-12T07:13:43;96389.56;;;10.36;63.04
22651;BME280;11492;42.646;23.400;2022-11-12T07:16:12;96395.31;;;10.56;63.58
22651;BME280;11492;42.646;23.400;2022-11-12T07:18:38;96389.94;;;10.67;62.33
22651;BME280;11492;42.646;23.400;2022-11-12T07:21:06;96390.75;;;10.85;62.13
22651;BME280;11492;42.646;23.400;2022-11-12T07:23:34;96397.78;;;11.09;60.61
22651;BME280;11492;42.646;23.400;2022-11-12T07:26:02;96388.19;;;11.19;59.54
22651;BME280;11492;42.646;23.400;2022-11-12T07:28:28;96396.31;;;11.41;58.49
22651;BME280;11492;42.646;23.400;2022-11-12T07:30:58;96388.47;;;11.50;57.40
22651;BME280;11492;42.646;23.400;2022-11-12T07:33:25;96397.00;;;11.68;57.50
22651;BME280;11492;42.646;23.400;2022-11-12T07:36:05;96397.44;;;11.81;56.47
22651;BME280;11492;42.646;23.400;2022-11-12T07:38:33;96399.84;;;11.82;55.97
22651;BME280;11492;42.646;23.400;2022-11-12T07:41:04;96401.00;;;11.88;55.67
22651;BME280;11492;42.646;23.400;2022-11-12T07:43:31;96380.47;;;11.86;55.53
22651;BME280;11492;42.646;23.400;2022-11-12T07:46:07;96396.75;;;12.04;55.57
22651;BME280;11492;42.646;23.400;2022-11-12T07:48:33;96392.34;;;11.96;55.47
22651;BME280;11492;42.646;23.400;2022-11-12T07:51:03;96401.22;;;11.94;55.49
22651;BME280;11492;42.646;23.400;2022-11-12T07:53:29;96397.16;;;11.92;55.09
22651;BME280;11492;42.646;23.400;2022-11-12T07:55:56;96398.72;;;11.85;55.42
22651;BME280;11492;42.646;23.400;2022-11-12T07:58:23;96400.81;;;11.81;54.88
22651;BME280;11492;42.646;23.400;2022-11-12T08:00:49;96405.84;;;11.83;55.78
22651;BME280;11492;42.646;23.400;2022-11-12T08:03:15;96409.06;;;11.85;55.35
22651;BME280;11492;42.646;23.400;2022-11-12T08:05:41;96405.84;;;11.83;55.17
22651;BME280;11492;42.646;23.400;2022-11-12T08:08:07;96411.00;;;11.83;55.55
22651;BME280;11492;42.646;23.400;2022-11-12T08:10:32;96400.91;;;11.72;55.29
22651;BME280;11492;42.646;23.400;2022-11-12T08:12:57;96409.66;;;11.71;55.09
22651;BME280;11492;42.646;23.400;2022-11-12T08:15:23;96409.09;;;11.60;55.91
22651;BME280;11492;42.646;23.400;2022-11-12T08:17:49;96409.75;;;11.45;56.57
22651;BME280;11492;42.646;23.400;2022-11-12T08:20:16;96413.13;;;11.28;56.06
22651;BME280;11492;42.646;23.400;2022-11-12T08:22:43;96424.16;;;11.30;56.80
22651;BME280;11492;42.646;23.400;2022-11-12T08:25:08;96400.75;;;11.14;56.89
22651;BME280;11492;42.646;23.400;2022-11-12T08:27:34;96414.56;;;11.40;62.98
22651;BME280;11492;42.646;23.400;2022-11-12T08:30:00;96422.16;;;11.58;67.40
22651;BME280;11492;42.646;23.400;2022-11-12T08:32:25;96418.13;;;11.81;58.82
22651;BME280;11492;42.646;23.400;2022-11-12T08:34:51;96427.66;;;12.05;61.28
22651;BME280;11492;42.646;23.400;2022-11-12T08:37:16;96425.13;;;12.13;57.95
22651;BME280;11492;42.646;23.400;2022-11-12T08:39:42;96417.88;;;12.17;54.55
22651;BME280;11492;42.646;23.400;2022-11-12T08:42:07;96412.91;;;12.31;56.07
22651;BME280;11492;42.646;23.400;2022-11-12T08:44:33;96414.91;;;12.45;55.22
22651;BME280;11492;42.646;23.400;2022-11-12T08:46:58;96427.28;;;12.58;55.41
22651;BME280;11492;42.646;23.400;2022-11-12T08:49:25;96414.47;;;12.57;53.55
22651;BME280;11492;42.646;23.400;2022-11-12T08:51:50;96418.13;;;12.39;53.56
22651;BME280;11492;42.646;23.400;2022-11-12T08:54:16;96421.63;;;12.22;53.67
22651;BME280;11492;42.646;23.400;2022-11-12T08:56:41;96420.59;;;12.15;53.48
22651;BME280;11492;42.646;23.400;2022-11-12T08:59:06;96425.16;;;12.21;54.00
22651;BME280;11492;42.646;23.400;2022-11-12T09:01:32;96421.16;;;12.26;54.54
22651;BME280;11492;42.646;23.400;2022-11-12T09:03:57;96412.44;;;12.35;53.45
22651;BME280;11492;42.646;23.400;2022-11-12T09:06:23;96416.53;;;12.45;52.99
22651;BME280;11492;42.646;23.400;2022-11-12T09:08:48;96410.00;;;12.34;53.35
22651;BME280;11492;42.646;23.400;2022-11-12T09:11:14;96403.97;;;12.66;52.96
22651;BME280;11492;42.646;23.400;2022-11-12T09:13:39;96395.41;;;13.38;51.66
22651;BME280;11492;42.646;23.400;2022-11-12T09:16:06;96408.66;;;14.21;49.03
22651;BME280;11492;42.646;23.400;2022-11-12T09:18:32;96408.97;;;14.26;48.33
22651;BME280;11492;42.646;23.400;2022-11-12T09:21:10;96405.91;;;14.15;49.43
22651;BME280;11492;42.646;23.400;2022-11-12T09:23:36;96400.28;;;13.96;48.79
22651;BME280;11492;42.646;23.400;2022-11-12T09:26:02;96401.56;;;13.60;49.34
22651;BME280;11492;42.646;23.400;2022-11-12T09:28:28;96409.69;;;13.42;49.90
22651;BME280;11492;42.646;23.400;2022-11-12T09:30:54;96416.16;;;13.22;50.96
22651;BME280;11492;42.646;23.400;2022-11-12T09:33:25;96406.69;;;12.90;51.36
22651;BME280;11492;42.646;23.400;2022-11-12T09:35:52;96415.16;;;12.67;52.59
22651;BME280;11492;42.646;23.400;2022-11-12T09:38:18;96408.13;;;12.51;53.07
22651;BME280;11492;42.646;23.400;2022-11-12T09:43:30;96418.06;;;12.23;51.54
22651;BME280;11492;42.646;23.400;2022-11-12T09:46:01;96417.38;;;12.21;52.00
22651;BME280;11492;42.646;23.400;2022-11-12T09:48:34;96411.19;;;12.14;52.17
22651;BME280;11492;42.646;23.400;2022-11-12T09:51:36;96421.41;;;12.16;52.29
22651;BME280;11492;42.646;23.400;2022-11-12T09:54:24;96405.41;;;12.20;52.23
22651;BME280;11492;42.646;23.400;2022-11-12T09:56:51;96409.31;;;12.24;52.82
22651;BME280;11492;42.646;23.400;2022-11-12T09:59:17;96417.09;;;12.24;52.15
22651;BME280;11492;42.646;23.400;2022-11-12T10:12:20;96423.88;;;12.25;50.96
22651;BME280;11492;42.646;23.400;2022-11-12T10:18:07;96417.28;;;12.05;51.35
22651;BME280;11492;42.646;23.400;2022-11-12T10:20:46;96403.97;;;11.93;51.37
22651;BME280;11492;42.646;23.400;2022-11-12T10:23:18;96420.81;;;11.96;53.16
22651;BME280;11492;42.646;23.400;2022-11-12T10:25:47;96416.84;;;11.85;53.97
22651;BME280;11492;42.646;23.400;2022-11-12T10:28:34;96393.44;;;11.69;54.04
22651;BME280;11492;42.646;23.400;2022-11-12T10:31:10;96419.84;;;11.72;54.31
22651;BME280;11492;42.646;23.400;2022-11-12T10:33:36;96413.50;;;11.67;55.26
22651;BME280;11492;42.646;23.400;2022-11-12T10:36:20;96413.53;;;11.50;54.74
22651;BME280;11492;42.646;23.400;2022-11-12T10:38:51;96420.72;;;11.39;54.88
22651;BME280;11492;42.646;23.400;2022-11-12T10:46:24;96418.88;;;11.22;55.59
22651;BME280;11492;42.646;23.400;2022-11-12T10:49:03;96421.78;;;11.19;56.35
22651;BME280;11492;42.646;23.400;2022-11-12T10:51:32;96421.19;;;11.25;56.08
22651;BME280;11492;42.646;23.400;2022-11-12T10:54:00;96420.22;;;11.26;56.89
22651;BME280;11492;42.646;23.400;2022-11-12T10:56:43;96414.69;;;11.21;57.56
22651;BME280;11492;42.646;23.400;2022-11-12T10:59:13;96421.84;;;11.27;58.31
22651;BME280;11492;42.646;23.400;2022-11-12T11:01:39;96411.81;;;11.24;57.52
22651;BME280;11492;42.646;23.400;2022-11-12T11:04:15;96426.00;;;11.54;58.78
22651;BME280;11492;42.646;23.400;2022-11-12T11:06:41;96413.16;;;11.87;59.22
22651;BME280;11492;42.646;23.400;2022-11-12T11:09:17;96406.13;;;12.05;57.16
22651;BME280;11492;42.646;23.400;2022-11-12T11:11:52;96405.19;;;12.06;56.28
22651;BME280;11492;42.646;23.400;2022-11-12T11:16:52;96411.63;;;12.02;56.71
22651;BME280;11492;42.646;23.400;2022-11-12T11:19:18;96411.44;;;11.96;56.37
22651;BME280;11492;42.646;23.400;2022-11-12T11:21:56;96396.91;;;12.02;56.94
22651;BME280;11492;42.646;23.400;2022-11-12T11:24:47;96395.56;;;12.23;57.01
22651;BME280;11492;42.646;23.400;2022-11-12T11:27:35;96407.50;;;12.57;56.01
22651;BME280;11492;42.646;23.400;2022-11-12T11:30:10;96398.88;;;12.74;54.22
22651;BME280;11492;42.646;23.400;2022-11-12T11:33:16;96401.50;;;12.90;54.16
22651;BME280;11492;42.646;23.400;2022-11-12T11:41:31;96398.09;;;12.97;54.08
22651;BME280;11492;42.646;23.400;2022-11-12T11:46:57;96397.00;;;12.99;53.74
22651;BME280;11492;42.646;23.400;2022-11-12T12:03:20;96398.28;;;13.03;52.37
22651;BME280;11492;42.646;23.400;2022-11-12T12:08:51;96400.06;;;12.95;52.83
22651;BME280;11492;42.646;23.400;2022-11-12T12:17:23;96380.78;;;12.90;54.07
22651;BME280;11492;42.646;23.400;2022-11-12T12:20:31;96385.25;;;12.72;53.27
22651;BME280;11492;42.646;23.400;2022-11-12T12:23:05;96378.03;;;12.50;54.10
22651;BME280;11492;42.646;23.400;2022-11-12T12:25:37;96387.63;;;12.25;54.63
22651;BME280;11492;42.646;23.400;2022-11-12T12:28:55;96357.91;;;12.04;54.03
22651;BME280;11492;42.646;23.400;2022-11-12T12:30:59;96374.31;;;11.87;54.80
22651;BME280;11492;42.646;23.400;2022-11-12T12:33:38;96377.69;;;11.80;54.99
22651;BME280;11492;42.646;23.400;2022-11-12T12:36:14;96397.16;;;11.92;55.53
22651;BME280;11492;42.646;23.400;2022-11-12T12:43:57;96385.84;;;11.93;56.39
22651;BME280;11492;42.646;23.400;2022-11-12T12:46:28;96377.88;;;11.86;56.84
22651;BME280;11492;42.646;23.400;2022-11-12T12:48:56;96394.69;;;11.82;58.11
22651;BME280;11492;42.646;23.400;2022-11-12T12:51:27;96403.41;;;11.81;58.08
22651;BME280;11492;42.646;23.400;2022-11-12T12:53:53;96399.34;;;11.79;58.34
22651;BME280;11492;42.646;23.400;2022-11-12T12:58:48;96388.06;;;11.63;61.02
22651;BME280;11492;42.646;23.400;2022-11-12T13:03:54;96397.56;;;11.54;61.47
22651;BME280;11492;42.646;23.400;2022-11-12T13:09:18;96372.97;;;11.33;62.35
22651;BME280;11492;42.646;23.400;2022-11-12T13:11:58;96386.97;;;11.31;62.70
22651;BME280;11492;42.646;23.400;2022-11-12T13:17:11;96422.22;;;11.32;64.33
22651;BME280;11492;42.646;23.400;2022-11-12T13:45:27;96407.84;;;10.51;66.23
22651;BME280;11492;42.646;23.400;2022-11-12T13:47:53;96408.84;;;10.41;67.43
22651;BME280;11492;42.646;23.400;2022-11-12T13:50:21;96422.94;;;10.46;67.58
22651;BME280;11492;42.646;23.400;2022-11-12T13:52:47;96412.38;;;10.40;68.29
22651;BME280;11492;42.646;23.400;2022-11-12T13:55:21;96406.94;;;10.34;68.73
22651;BME280;11492;42.646;23.400;2022-11-12T13:57:51;96405.63;;;10.30;68.65
22651;BME280;11492;42.646;23.400;2022-11-12T14:02:46;96411.34;;;10.24;69.90
22651;BME280;11492;42.646;23.400;2022-11-12T14:05:18;96414.66;;;10.17;69.83
22651;BME280;11492;42.646;23.400;2022-11-12T14:13:43;96413.66;;;10.53;76.77
22651;BME280;11492;42.646;23.400;2022-11-12T14:21:26;96407.44;;;10.46;69.46
22651;BME280;11492;42.646;23.400;2022-11-12T14:23:52;96396.13;;;10.30;70.33
22651;BME280;11492;42.646;23.400;2022-11-12T14:28:58;96408.69;;;10.16;70.82
22651;BME280;11492;42.646;23.400;2022-11-12T14:31:24;96408.16;;;10.03;71.47
22651;BME280;11492;42.646;23.400;2022-11-12T14:33:50;96418.78;;;10.00;71.52
22651;BME280;11492;42.646;23.400;2022-11-12T14:36:17;96403.31;;;9.82;71.91
22651;BME280;11492;42.646;23.400;2022-11-12T14:39:01;96413.41;;;9.85;71.80
22651;BME280;11492;42.646;23.400;2022-11-12T14:41:30;96417.19;;;9.81;72.52
22651;BME280;11492;42.646;23.400;2022-11-12T14:44:00;96409.06;;;9.85;73.05
22651;BME280;11492;42.646;23.400;2022-11-12T14:46:31;96410.09;;;9.92;72.17
22651;BME280;11492;42.646;23.400;2022-11-12T14:49:05;96405.25;;;9.89;71.94
22651;BME280;11492;42.646;23.400;2022-11-12T14:51:39;96403.31;;;9.82;71.68
22651;BME280;11492;42.646;23.400;2022-11-12T14:54:13;96412.16;;;9.79;71.37
22651;BME280;11492;42.646;23.400;2022-11-12T14:56:43;96390.38;;;9.55;71.54
22651;BME280;11492;42.646;23.400;2022-11-12T14:59:14;96413.41;;;9.66;71.59
22651;BME280;11492;42.646;23.400;2022-11-12T15:02:07;96421.13;;;9.66;71.58